PWSweather.com
Personal Weather Stations
Station Observations
01979
Ravne Pri CerknemSI 5282

Ravne Pri CerknemSI 5282

Lat: 46.1213916, Lon: 13.952774299999987

Elevation: 2244.094488

Station Type: Techo Line WS2307

www.vremenska.postaja.andre.si/

High Low Average
Temperature 44.4°F6.9°C 27.7°F-2.4°C 34.1°F1.2°C
Dew Point 44.4°F6.9°C 23.8°F-4.6°C 33.5°F0.8°C
Winds 6.1 mph 9.8 kmh Calm Calm 2.0 mph E3.2 kmh E
Wind Gusts 9.6 mph15.4 kmh -- 4.0 mph6.4 kmh
Humidity 100% 79% 98%
Pressure 30.29 in1025.7 mb 30.07 in1018.3 mb -
Precipitation 0.00 in0.0 mm - -
Hour Temp Dew Point Humidity Winds Wind Gusts Pressure Precip Precip Rate Daily Precip Total
12:00 AM 30.9°F-0.6°C 25.2°F-3.8°C 79% 1.4 mph ESE2.3 kmh ESE 2.7 mph4.3 kmh 30.29 in1025.7 mb 0.00 in0.0 mm 0.00 in0.0 mm 0.00 in0.0 mm
12:10 AM 31.1°F-0.5°C 25.3°F-3.7°C 79% 1.4 mph E2.3 kmh E 6.0 mph9.7 kmh 30.29 in1025.7 mb 0.00 in0.0 mm 0.00 in0.0 mm 0.00 in0.0 mm
12:20 AM 30.7°F-0.7°C 25.0°F-3.9°C 79% 1.4 mph E2.3 kmh E 4.3 mph6.9 kmh 30.29 in1025.7 mb 0.00 in0.0 mm 0.00 in0.0 mm 0.00 in0.0 mm
12:30 AM 30.6°F-0.8°C 24.8°F-4.0°C 79% Calm Calm -- 30.28 in1025.4 mb 0.00 in0.0 mm 0.00 in0.0 mm 0.00 in0.0 mm
12:40 AM 30.0°F-1.1°C 24.3°F-4.3°C 79% Calm Calm -- 30.28 in1025.4 mb 0.00 in0.0 mm 0.00 in0.0 mm 0.00 in0.0 mm
12:50 AM 30.0°F-1.1°C 24.3°F-4.3°C 79% Calm Calm -- 30.28 in1025.4 mb 0.00 in0.0 mm 0.00 in0.0 mm 0.00 in0.0 mm
01:00 AM 30.0°F-1.1°C 24.3°F-4.3°C 79% Calm Calm -- 30.28 in1025.4 mb 0.00 in0.0 mm 0.00 in0.0 mm 0.00 in0.0 mm
01:10 AM 29.8°F-1.2°C 24.1°F-4.4°C 79% Calm Calm -- 30.28 in1025.4 mb 0.00 in0.0 mm 0.00 in0.0 mm 0.00 in0.0 mm
01:20 AM 29.8°F-1.2°C 24.1°F-4.4°C 79% Calm Calm -- 30.27 in1025.1 mb 0.00 in0.0 mm 0.00 in0.0 mm 0.00 in0.0 mm
01:30 AM 29.8°F-1.2°C 24.1°F-4.4°C 79% 0.3 mph SE0.5 kmh SE 1.6 mph2.6 kmh 30.27 in1025.1 mb 0.00 in0.0 mm 0.00 in0.0 mm 0.00 in0.0 mm
01:40 AM 29.8°F-1.2°C 24.1°F-4.4°C 79% 0.1 mph ESE0.2 kmh ESE 3.1 mph5.0 kmh 30.26 in1024.7 mb 0.00 in0.0 mm 0.00 in0.0 mm 0.00 in0.0 mm
01:50 AM 30.0°F-1.1°C 24.3°F-4.3°C 79% 0.6 mph ESE1.0 kmh ESE 3.1 mph5.0 kmh 30.26 in1024.7 mb 0.00 in0.0 mm 0.00 in0.0 mm 0.00 in0.0 mm
02:00 AM 29.5°F-1.4°C 23.8°F-4.6°C 79% Calm Calm -- 30.26 in1024.7 mb 0.00 in0.0 mm 0.00 in0.0 mm 0.00 in0.0 mm
02:01 AM 29.8°F-1.2°C 29.8°F-1.2°C 100% Calm Calm -- 30.27 in1025.1 mb 0.00 in0.0 mm 0.00 in0.0 mm 0.00 in0.0 mm
02:10 AM 29.7°F-1.3°C 29.7°F-1.3°C 100% Calm Calm -- 30.26 in1024.7 mb 0.00 in0.0 mm 0.00 in0.0 mm 0.00 in0.0 mm
02:20 AM 29.7°F-1.3°C 29.7°F-1.3°C 100% 0.4 mph SSW0.6 kmh SSW 1.8 mph2.9 kmh 30.26 in1024.7 mb 0.00 in0.0 mm 0.00 in0.0 mm 0.00 in0.0 mm
02:30 AM 29.5°F-1.4°C 29.5°F-1.4°C 100% 0.6 mph S1.0 kmh S 2.7 mph4.3 kmh 30.25 in1024.4 mb 0.00 in0.0 mm 0.00 in0.0 mm 0.00 in0.0 mm
02:40 AM 29.7°F-1.3°C 29.7°F-1.3°C 100% Calm Calm -- 30.25 in1024.4 mb 0.00 in0.0 mm 0.00 in0.0 mm 0.00 in0.0 mm
02:50 AM 29.7°F-1.3°C 29.7°F-1.3°C 100% 1.5 mph E2.4 kmh E 3.6 mph5.8 kmh 30.25 in1024.4 mb 0.00 in0.0 mm 0.00 in0.0 mm 0.00 in0.0 mm
03:00 AM 29.8°F-1.2°C 29.8°F-1.2°C 100% 4.4 mph SE7.1 kmh SE 6.3 mph10.1 kmh 30.25 in1024.4 mb 0.00 in0.0 mm 0.00 in0.0 mm 0.00 in0.0 mm
03:03 AM 29.5°F-1.4°C 29.5°F-1.4°C 100% 2.2 mph ESE3.5 kmh ESE 6.0 mph9.7 kmh 30.25 in1024.4 mb 0.00 in0.0 mm 0.00 in0.0 mm 0.00 in0.0 mm
03:10 AM 29.5°F-1.4°C 29.5°F-1.4°C 100% 5.9 mph SE9.5 kmh SE 6.9 mph11.1 kmh 30.24 in1024.0 mb 0.00 in0.0 mm 0.00 in0.0 mm 0.00 in0.0 mm
03:20 AM 29.5°F-1.4°C 29.5°F-1.4°C 100% 6.1 mph ESE9.8 kmh ESE 6.9 mph11.1 kmh 30.24 in1024.0 mb 0.00 in0.0 mm 0.00 in0.0 mm 0.00 in0.0 mm
03:30 AM 29.5°F-1.4°C 29.5°F-1.4°C 100% 5.8 mph E9.3 kmh E 9.6 mph15.4 kmh 30.24 in1024.0 mb 0.00 in0.0 mm 0.00 in0.0 mm 0.00 in0.0 mm
03:40 AM 29.5°F-1.4°C 29.5°F-1.4°C 100% 4.0 mph ESE6.4 kmh ESE 5.8 mph9.3 kmh 30.23 in1023.7 mb 0.00 in0.0 mm 0.00 in0.0 mm 0.00 in0.0 mm
03:50 AM 29.3°F-1.5°C 29.3°F-1.5°C 100% 3.1 mph ESE5.0 kmh ESE 5.6 mph9.0 kmh 30.22 in1023.4 mb 0.00 in0.0 mm 0.00 in0.0 mm 0.00 in0.0 mm
04:00 AM 29.1°F-1.6°C 29.1°F-1.6°C 100% 1.7 mph ESE2.7 kmh ESE 7.4 mph11.9 kmh 30.22 in1023.4 mb 0.00 in0.0 mm 0.00 in0.0 mm 0.00 in0.0 mm
04:10 AM 28.8°F-1.8°C 28.8°F-1.8°C 100% 3.0 mph ESE4.8 kmh ESE 7.4 mph11.9 kmh 30.22 in1023.4 mb 0.00 in0.0 mm 0.00 in0.0 mm 0.00 in0.0 mm
04:20 AM 28.9°F-1.7°C 28.9°F-1.7°C 100% 1.7 mph SSE2.7 kmh SSE 4.7 mph7.6 kmh 30.22 in1023.4 mb 0.00 in0.0 mm 0.00 in0.0 mm 0.00 in0.0 mm
04:30 AM 28.8°F-1.8°C 28.8°F-1.8°C 100% Calm Calm -- 30.22 in1023.4 mb 0.00 in0.0 mm 0.00 in0.0 mm 0.00 in0.0 mm
04:40 AM 28.6°F-1.9°C 28.6°F-1.9°C 100% 0.3 mph ESE0.5 kmh ESE 1.3 mph2.1 kmh 30.21 in1023.0 mb 0.00 in0.0 mm 0.00 in0.0 mm 0.00 in0.0 mm
04:50 AM 28.6°F-1.9°C 28.6°F-1.9°C 100% 1.2 mph E1.9 kmh E 4.9 mph7.9 kmh 30.21 in1023.0 mb 0.00 in0.0 mm 0.00 in0.0 mm 0.00 in0.0 mm
05:00 AM 28.6°F-1.9°C 28.6°F-1.9°C 100% 4.6 mph ESE7.4 kmh ESE 6.5 mph10.5 kmh 30.21 in1023.0 mb 0.00 in0.0 mm 0.00 in0.0 mm 0.00 in0.0 mm
05:10 AM 28.6°F-1.9°C 28.6°F-1.9°C 100% 3.6 mph E5.8 kmh E 6.0 mph9.7 kmh 30.21 in1023.0 mb 0.00 in0.0 mm 0.00 in0.0 mm 0.00 in0.0 mm
05:20 AM 28.6°F-1.9°C 28.6°F-1.9°C 100% 0.5 mph ESE0.8 kmh ESE 2.5 mph4.0 kmh 30.20 in1022.7 mb 0.00 in0.0 mm 0.00 in0.0 mm 0.00 in0.0 mm
05:30 AM 28.6°F-1.9°C 28.6°F-1.9°C 100% 2.1 mph ESE3.4 kmh ESE 3.4 mph5.5 kmh 30.21 in1023.0 mb 0.00 in0.0 mm 0.00 in0.0 mm 0.00 in0.0 mm
05:40 AM 28.6°F-1.9°C 28.6°F-1.9°C 100% 3.6 mph ESE5.8 kmh ESE 4.9 mph7.9 kmh 30.20 in1022.7 mb 0.00 in0.0 mm 0.00 in0.0 mm 0.00 in0.0 mm
05:50 AM 28.2°F-2.1°C 28.2°F-2.1°C 100% 3.6 mph ESE5.8 kmh ESE 5.8 mph9.3 kmh 30.20 in1022.7 mb 0.00 in0.0 mm 0.00 in0.0 mm 0.00 in0.0 mm
06:00 AM 28.2°F-2.1°C 28.2°F-2.1°C 100% 3.1 mph ESE5.0 kmh ESE 5.6 mph9.0 kmh 30.20 in1022.7 mb 0.00 in0.0 mm 0.00 in0.0 mm 0.00 in0.0 mm
06:10 AM 28.2°F-2.1°C 28.2°F-2.1°C 100% 2.5 mph E4.0 kmh E 4.9 mph7.9 kmh 30.20 in1022.7 mb 0.00 in0.0 mm 0.00 in0.0 mm 0.00 in0.0 mm
06:20 AM 28.4°F-2.0°C 28.4°F-2.0°C 100% 3.7 mph ESE6.0 kmh ESE 6.3 mph10.1 kmh 30.20 in1022.7 mb 0.00 in0.0 mm 0.00 in0.0 mm 0.00 in0.0 mm
06:30 AM 28.2°F-2.1°C 28.2°F-2.1°C 100% 1.0 mph SE1.6 kmh SE 3.4 mph5.5 kmh 30.19 in1022.4 mb 0.00 in0.0 mm 0.00 in0.0 mm 0.00 in0.0 mm
06:40 AM 28.0°F-2.2°C 28.0°F-2.2°C 100% 3.9 mph SE6.3 kmh SE 6.7 mph10.8 kmh 30.19 in1022.4 mb 0.00 in0.0 mm 0.00 in0.0 mm 0.00 in0.0 mm
06:50 AM 28.0°F-2.2°C 28.0°F-2.2°C 100% 2.0 mph ESE3.2 kmh ESE 4.9 mph7.9 kmh 30.19 in1022.4 mb 0.00 in0.0 mm 0.00 in0.0 mm 0.00 in0.0 mm
07:00 AM 28.0°F-2.2°C 28.0°F-2.2°C 100% 1.9 mph ESE3.1 kmh ESE 4.5 mph7.2 kmh 30.19 in1022.4 mb 0.00 in0.0 mm 0.00 in0.0 mm 0.00 in0.0 mm
07:10 AM 28.0°F-2.2°C 28.0°F-2.2°C 100% 5.4 mph ESE8.7 kmh ESE 6.5 mph10.5 kmh 30.19 in1022.4 mb 0.00 in0.0 mm 0.00 in0.0 mm 0.00 in0.0 mm
07:20 AM 28.0°F-2.2°C 28.0°F-2.2°C 100% 1.3 mph SE2.1 kmh SE 2.7 mph4.3 kmh 30.18 in1022.0 mb 0.00 in0.0 mm 0.00 in0.0 mm 0.00 in0.0 mm
07:30 AM 28.0°F-2.2°C 28.0°F-2.2°C 100% 2.4 mph ESE3.9 kmh ESE 5.4 mph8.7 kmh 30.19 in1022.4 mb 0.00 in0.0 mm 0.00 in0.0 mm 0.00 in0.0 mm
07:40 AM 27.7°F-2.4°C 27.7°F-2.4°C 100% Calm Calm -- 30.19 in1022.4 mb 0.00 in0.0 mm 0.00 in0.0 mm 0.00 in0.0 mm
07:50 AM 27.7°F-2.4°C 27.7°F-2.4°C 100% 0.3 mph ESE0.5 kmh ESE 6.3 mph10.1 kmh 30.19 in1022.4 mb 0.00 in0.0 mm 0.00 in0.0 mm 0.00 in0.0 mm
08:00 AM 27.9°F-2.3°C 27.9°F-2.3°C 100% 3.0 mph ESE4.8 kmh ESE 6.3 mph10.1 kmh 30.19 in1022.4 mb 0.00 in0.0 mm 0.00 in0.0 mm 0.00 in0.0 mm
08:10 AM 28.0°F-2.2°C 28.0°F-2.2°C 100% 2.1 mph ESE3.4 kmh ESE 5.4 mph8.7 kmh 30.19 in1022.4 mb 0.00 in0.0 mm 0.00 in0.0 mm 0.00 in0.0 mm
08:20 AM 28.2°F-2.1°C 28.2°F-2.1°C 100% 1.3 mph E2.1 kmh E 3.6 mph5.8 kmh 30.19 in1022.4 mb 0.00 in0.0 mm 0.00 in0.0 mm 0.00 in0.0 mm
08:30 AM 28.2°F-2.1°C 28.2°F-2.1°C 100% 2.1 mph E3.4 kmh E 6.7 mph10.8 kmh 30.19 in1022.4 mb 0.00 in0.0 mm 0.00 in0.0 mm 0.00 in0.0 mm
08:40 AM 28.6°F-1.9°C 28.6°F-1.9°C 100% 2.3 mph SE3.7 kmh SE 5.1 mph8.2 kmh 30.19 in1022.4 mb 0.00 in0.0 mm 0.00 in0.0 mm 0.00 in0.0 mm
08:50 AM 30.0°F-1.1°C 30.0°F-1.1°C 100% 1.0 mph E1.6 kmh E 4.0 mph6.4 kmh 30.19 in1022.4 mb 0.00 in0.0 mm 0.00 in0.0 mm 0.00 in0.0 mm
09:00 AM 30.7°F-0.7°C 30.7°F-0.7°C 100% 1.9 mph SE3.1 kmh SE 5.6 mph9.0 kmh 30.19 in1022.4 mb 0.00 in0.0 mm 0.00 in0.0 mm 0.00 in0.0 mm
09:10 AM 31.6°F-0.2°C 31.6°F-0.2°C 100% Calm Calm -- 30.19 in1022.4 mb 0.00 in0.0 mm 0.00 in0.0 mm 0.00 in0.0 mm
09:20 AM 32.4°F0.2°C 32.4°F0.2°C 100% 0.1 mph ESE0.2 kmh ESE 6.0 mph9.7 kmh 30.19 in1022.4 mb 0.00 in0.0 mm 0.00 in0.0 mm 0.00 in0.0 mm
09:30 AM 32.5°F0.3°C 32.5°F0.3°C 100% 1.6 mph SE2.6 kmh SE 6.0 mph9.7 kmh 30.19 in1022.4 mb 0.00 in0.0 mm 0.00 in0.0 mm 0.00 in0.0 mm
09:40 AM 33.8°F1.0°C 33.8°F1.0°C 100% Calm Calm -- 30.19 in1022.4 mb 0.00 in0.0 mm 0.00 in0.0 mm 0.00 in0.0 mm
09:50 AM 33.6°F0.9°C 33.6°F0.9°C 100% Calm Calm -- 30.18 in1022.0 mb 0.00 in0.0 mm 0.00 in0.0 mm 0.00 in0.0 mm
10:00 AM 33.6°F0.9°C 33.6°F0.9°C 100% 0.3 mph ENE0.5 kmh ENE 1.6 mph2.6 kmh 30.19 in1022.4 mb 0.00 in0.0 mm 0.00 in0.0 mm 0.00 in0.0 mm
10:10 AM 33.4°F0.8°C 33.4°F0.8°C 100% 0.1 mph ENE0.2 kmh ENE 1.6 mph2.6 kmh 30.18 in1022.0 mb 0.00 in0.0 mm 0.00 in0.0 mm 0.00 in0.0 mm
10:20 AM 34.9°F1.6°C 34.9°F1.6°C 100% Calm Calm -- 30.18 in1022.0 mb 0.00 in0.0 mm 0.00 in0.0 mm 0.00 in0.0 mm
10:30 AM 34.3°F1.3°C 34.3°F1.3°C 100% 0.6 mph ESE1.0 kmh ESE 4.0 mph6.4 kmh 30.18 in1022.0 mb 0.00 in0.0 mm 0.00 in0.0 mm 0.00 in0.0 mm
10:40 AM 34.9°F1.6°C 34.9°F1.6°C 100% 0.9 mph ESE1.4 kmh ESE 4.0 mph6.4 kmh 30.17 in1021.7 mb 0.00 in0.0 mm 0.00 in0.0 mm 0.00 in0.0 mm
10:50 AM 35.8°F2.1°C 35.8°F2.1°C 100% 0.2 mph SE0.3 kmh SE 0.9 mph1.4 kmh 30.17 in1021.7 mb 0.00 in0.0 mm 0.00 in0.0 mm 0.00 in0.0 mm
11:00 AM 37.4°F3.0°C 37.4°F3.0°C 100% 0.4 mph SSW0.6 kmh SSW 2.7 mph4.3 kmh 30.18 in1022.0 mb 0.00 in0.0 mm 0.00 in0.0 mm 0.00 in0.0 mm
11:10 AM 37.2°F2.9°C 37.2°F2.9°C 100% 2.6 mph SSW4.2 kmh SSW 2.7 mph4.3 kmh 30.17 in1021.7 mb 0.00 in0.0 mm 0.00 in0.0 mm 0.00 in0.0 mm
11:20 AM 38.1°F3.4°C 38.1°F3.4°C 100% 0.8 mph SSW1.3 kmh SSW 3.1 mph5.0 kmh 30.17 in1021.7 mb 0.00 in0.0 mm 0.00 in0.0 mm 0.00 in0.0 mm
11:30 AM 38.5°F3.6°C 38.5°F3.6°C 100% 0.7 mph SSW1.1 kmh SSW 3.4 mph5.5 kmh 30.17 in1021.7 mb 0.00 in0.0 mm 0.00 in0.0 mm 0.00 in0.0 mm
11:40 AM 38.8°F3.8°C 38.8°F3.8°C 100% Calm Calm -- 30.16 in1021.3 mb 0.00 in0.0 mm 0.00 in0.0 mm 0.00 in0.0 mm
11:50 AM 39.0°F3.9°C 39.0°F3.9°C 100% 0.5 mph ESE0.8 kmh ESE 2.5 mph4.0 kmh 30.16 in1021.3 mb 0.00 in0.0 mm 0.00 in0.0 mm 0.00 in0.0 mm
12:00 PM 38.5°F3.6°C 38.5°F3.6°C 100% 2.2 mph ESE3.5 kmh ESE 4.5 mph7.2 kmh 30.16 in1021.3 mb 0.00 in0.0 mm 0.00 in0.0 mm 0.00 in0.0 mm
12:10 PM 40.3°F4.6°C 40.3°F4.6°C 100% 0.3 mph S0.5 kmh S 1.6 mph2.6 kmh 30.15 in1021.0 mb 0.00 in0.0 mm 0.00 in0.0 mm 0.00 in0.0 mm
12:20 PM 41.4°F5.2°C 41.4°F5.2°C 100% 0.8 mph SSW1.3 kmh SSW 3.8 mph6.1 kmh 30.15 in1021.0 mb 0.00 in0.0 mm 0.00 in0.0 mm 0.00 in0.0 mm
12:30 PM 41.0°F5.0°C 41.0°F5.0°C 100% 3.1 mph SSW5.0 kmh SSW 6.5 mph10.5 kmh 30.15 in1021.0 mb 0.00 in0.0 mm 0.00 in0.0 mm 0.00 in0.0 mm
12:40 PM 40.8°F4.9°C 40.8°F4.9°C 100% Calm Calm -- 30.14 in1020.7 mb 0.00 in0.0 mm 0.00 in0.0 mm 0.00 in0.0 mm
12:50 PM 41.0°F5.0°C 41.0°F5.0°C 100% Calm Calm -- 30.13 in1020.3 mb 0.00 in0.0 mm 0.00 in0.0 mm 0.00 in0.0 mm
01:00 PM 42.6°F5.9°C 42.6°F5.9°C 100% Calm Calm -- 30.13 in1020.3 mb 0.00 in0.0 mm 0.00 in0.0 mm 0.00 in0.0 mm
01:10 PM 43.5°F6.4°C 43.5°F6.4°C 100% Calm Calm -- 30.13 in1020.3 mb 0.00 in0.0 mm 0.00 in0.0 mm 0.00 in0.0 mm
01:20 PM 43.3°F6.3°C 43.3°F6.3°C 100% 1.2 mph SSE1.9 kmh SSE 2.7 mph4.3 kmh 30.12 in1020.0 mb 0.00 in0.0 mm 0.00 in0.0 mm 0.00 in0.0 mm
01:30 PM 43.7°F6.5°C 43.7°F6.5°C 100% 1.0 mph S1.6 kmh S 2.7 mph4.3 kmh 30.12 in1020.0 mb 0.00 in0.0 mm 0.00 in0.0 mm 0.00 in0.0 mm
01:40 PM 43.0°F6.1°C 43.0°F6.1°C 100% 2.1 mph SE3.4 kmh SE 6.5 mph10.5 kmh 30.12 in1020.0 mb 0.00 in0.0 mm 0.00 in0.0 mm 0.00 in0.0 mm
01:50 PM 43.7°F6.5°C 43.7°F6.5°C 100% 1.2 mph S1.9 kmh S 2.7 mph4.3 kmh 30.11 in1019.6 mb 0.00 in0.0 mm 0.00 in0.0 mm 0.00 in0.0 mm
02:00 PM 43.5°F6.4°C 43.5°F6.4°C 100% 2.3 mph SE3.7 kmh SE 3.6 mph5.8 kmh 30.11 in1019.6 mb 0.00 in0.0 mm 0.00 in0.0 mm 0.00 in0.0 mm
02:10 PM 43.3°F6.3°C 43.3°F6.3°C 100% 2.5 mph SE4.0 kmh SE 5.8 mph9.3 kmh 30.11 in1019.6 mb 0.00 in0.0 mm 0.00 in0.0 mm 0.00 in0.0 mm
02:20 PM 43.5°F6.4°C 43.5°F6.4°C 100% 2.2 mph S3.5 kmh S 5.1 mph8.2 kmh 30.10 in1019.3 mb 0.00 in0.0 mm 0.00 in0.0 mm 0.00 in0.0 mm
02:30 PM 43.5°F6.4°C 43.5°F6.4°C 100% 0.9 mph SE1.4 kmh SE 2.9 mph4.7 kmh 30.10 in1019.3 mb 0.00 in0.0 mm 0.00 in0.0 mm 0.00 in0.0 mm
02:40 PM 44.1°F6.7°C 44.1°F6.7°C 100% Calm Calm -- 30.10 in1019.3 mb 0.00 in0.0 mm 0.00 in0.0 mm 0.00 in0.0 mm
02:50 PM 44.4°F6.9°C 44.4°F6.9°C 100% 0.1 mph SSE0.2 kmh SSE 2.7 mph4.3 kmh 30.09 in1019.0 mb 0.00 in0.0 mm 0.00 in0.0 mm 0.00 in0.0 mm
03:00 PM 44.1°F6.7°C 44.1°F6.7°C 100% 0.4 mph SSE0.6 kmh SSE 2.7 mph4.3 kmh 30.10 in1019.3 mb 0.00 in0.0 mm 0.00 in0.0 mm 0.00 in0.0 mm
03:10 PM 44.4°F6.9°C 44.4°F6.9°C 100% Calm Calm -- 30.09 in1019.0 mb 0.00 in0.0 mm 0.00 in0.0 mm 0.00 in0.0 mm
03:20 PM 43.7°F6.5°C 43.7°F6.5°C 100% 0.6 mph S1.0 kmh S 2.9 mph4.7 kmh 30.09 in1019.0 mb 0.00 in0.0 mm 0.00 in0.0 mm 0.00 in0.0 mm
03:30 PM 42.8°F6.0°C 42.8°F6.0°C 100% Calm Calm -- 30.09 in1019.0 mb 0.00 in0.0 mm 0.00 in0.0 mm 0.00 in0.0 mm
03:40 PM 42.4°F5.8°C 42.4°F5.8°C 100% 1.2 mph SSE1.9 kmh SSE 2.5 mph4.0 kmh 30.09 in1019.0 mb 0.00 in0.0 mm 0.00 in0.0 mm 0.00 in0.0 mm
03:50 PM 42.1°F5.6°C 42.1°F5.6°C 100% 0.2 mph ESE0.3 kmh ESE 3.8 mph6.1 kmh 30.09 in1019.0 mb 0.00 in0.0 mm 0.00 in0.0 mm 0.00 in0.0 mm
04:00 PM 42.1°F5.6°C 42.1°F5.6°C 100% 0.8 mph ESE1.3 kmh ESE 3.8 mph6.1 kmh 30.08 in1018.6 mb 0.00 in0.0 mm 0.00 in0.0 mm 0.00 in0.0 mm
04:10 PM 41.9°F5.5°C 41.9°F5.5°C 100% 4.4 mph ESE7.1 kmh ESE 6.0 mph9.7 kmh 30.09 in1019.0 mb 0.00 in0.0 mm 0.00 in0.0 mm 0.00 in0.0 mm
04:20 PM 41.2°F5.1°C 41.2°F5.1°C 100% 2.6 mph SE4.2 kmh SE 4.9 mph7.9 kmh 30.09 in1019.0 mb 0.00 in0.0 mm 0.00 in0.0 mm 0.00 in0.0 mm
04:30 PM 40.8°F4.9°C 40.8°F4.9°C 100% 3.1 mph ESE5.0 kmh ESE 4.9 mph7.9 kmh 30.08 in1018.6 mb 0.00 in0.0 mm 0.00 in0.0 mm 0.00 in0.0 mm
04:40 PM 40.3°F4.6°C 40.3°F4.6°C 100% 4.6 mph ESE7.4 kmh ESE 6.0 mph9.7 kmh 30.08 in1018.6 mb 0.00 in0.0 mm 0.00 in0.0 mm 0.00 in0.0 mm
04:50 PM 39.9°F4.4°C 39.9°F4.4°C 100% 2.1 mph ESE3.4 kmh ESE 5.4 mph8.7 kmh 30.08 in1018.6 mb 0.00 in0.0 mm 0.00 in0.0 mm 0.00 in0.0 mm
05:00 PM 39.7°F4.3°C 39.7°F4.3°C 100% 2.5 mph ESE4.0 kmh ESE 5.1 mph8.2 kmh 30.07 in1018.3 mb 0.00 in0.0 mm 0.00 in0.0 mm 0.00 in0.0 mm
05:10 PM 39.0°F3.9°C 39.0°F3.9°C 100% 4.0 mph ESE6.4 kmh ESE 6.9 mph11.1 kmh 30.07 in1018.3 mb 0.00 in0.0 mm 0.00 in0.0 mm 0.00 in0.0 mm
05:20 PM 38.7°F3.7°C 38.7°F3.7°C 100% 5.6 mph SE9.0 kmh SE 6.5 mph10.5 kmh 30.08 in1018.6 mb 0.00 in0.0 mm 0.00 in0.0 mm 0.00 in0.0 mm
05:30 PM 38.1°F3.4°C 38.1°F3.4°C 100% 4.7 mph ESE7.6 kmh ESE 6.9 mph11.1 kmh 30.07 in1018.3 mb 0.00 in0.0 mm 0.00 in0.0 mm 0.00 in0.0 mm
05:40 PM 37.9°F3.3°C 37.9°F3.3°C 100% 3.0 mph SE4.8 kmh SE 6.3 mph10.1 kmh 30.08 in1018.6 mb 0.00 in0.0 mm 0.00 in0.0 mm 0.00 in0.0 mm
05:50 PM 37.6°F3.1°C 37.6°F3.1°C 100% 3.4 mph ESE5.5 kmh ESE 7.4 mph11.9 kmh 30.07 in1018.3 mb 0.00 in0.0 mm 0.00 in0.0 mm 0.00 in0.0 mm
06:00 PM 37.0°F2.8°C 37.0°F2.8°C 100% 4.8 mph SE7.7 kmh SE 7.4 mph11.9 kmh 30.08 in1018.6 mb 0.00 in0.0 mm 0.00 in0.0 mm 0.00 in0.0 mm
06:10 PM 36.9°F2.7°C 36.9°F2.7°C 100% 2.7 mph SE4.3 kmh SE 6.7 mph10.8 kmh 30.08 in1018.6 mb 0.00 in0.0 mm 0.00 in0.0 mm 0.00 in0.0 mm
06:20 PM 36.5°F2.5°C 36.5°F2.5°C 100% 4.7 mph SE7.6 kmh SE 7.8 mph12.6 kmh 30.08 in1018.6 mb 0.00 in0.0 mm 0.00 in0.0 mm 0.00 in0.0 mm
06:30 PM 36.0°F2.2°C 36.0°F2.2°C 100% Calm Calm -- 30.08 in1018.6 mb 0.00 in0.0 mm 0.00 in0.0 mm 0.00 in0.0 mm
06:40 PM 35.8°F2.1°C 35.8°F2.1°C 100% 4.1 mph ESE6.6 kmh ESE 5.6 mph9.0 kmh 30.09 in1019.0 mb 0.00 in0.0 mm 0.00 in0.0 mm 0.00 in0.0 mm
06:50 PM 35.4°F1.9°C 35.4°F1.9°C 100% 3.1 mph ESE5.0 kmh ESE 6.5 mph10.5 kmh 30.09 in1019.0 mb 0.00 in0.0 mm 0.00 in0.0 mm 0.00 in0.0 mm
07:00 PM 35.2°F1.8°C 35.2°F1.8°C 100% 1.6 mph SE2.6 kmh SE 3.4 mph5.5 kmh 30.09 in1019.0 mb 0.00 in0.0 mm 0.00 in0.0 mm 0.00 in0.0 mm
07:10 PM 34.9°F1.6°C 34.9°F1.6°C 100% 3.8 mph ESE6.1 kmh ESE 6.0 mph9.7 kmh 30.08 in1018.6 mb 0.00 in0.0 mm 0.00 in0.0 mm 0.00 in0.0 mm
07:20 PM 34.7°F1.5°C 34.7°F1.5°C 100% 5.8 mph E9.3 kmh E 6.9 mph11.1 kmh 30.09 in1019.0 mb 0.00 in0.0 mm 0.00 in0.0 mm 0.00 in0.0 mm
07:30 PM 34.3°F1.3°C 34.3°F1.3°C 100% 3.7 mph ESE6.0 kmh ESE 5.4 mph8.7 kmh 30.09 in1019.0 mb 0.00 in0.0 mm 0.00 in0.0 mm 0.00 in0.0 mm
07:40 PM 34.3°F1.3°C 34.3°F1.3°C 100% 1.7 mph E2.7 kmh E 4.5 mph7.2 kmh 30.09 in1019.0 mb 0.00 in0.0 mm 0.00 in0.0 mm 0.00 in0.0 mm
07:50 PM 34.2°F1.2°C 34.2°F1.2°C 100% 3.7 mph ESE6.0 kmh ESE 6.0 mph9.7 kmh 30.09 in1019.0 mb 0.00 in0.0 mm 0.00 in0.0 mm 0.00 in0.0 mm
08:00 PM 33.6°F0.9°C 33.6°F0.9°C 100% 2.2 mph E3.5 kmh E 6.0 mph9.7 kmh 30.09 in1019.0 mb 0.00 in0.0 mm 0.00 in0.0 mm 0.00 in0.0 mm
08:10 PM 33.6°F0.9°C 33.6°F0.9°C 100% Calm Calm -- 30.09 in1019.0 mb 0.00 in0.0 mm 0.00 in0.0 mm 0.00 in0.0 mm
08:20 PM 33.4°F0.8°C 33.4°F0.8°C 100% 0.3 mph ESE0.5 kmh ESE 1.3 mph2.1 kmh 30.10 in1019.3 mb 0.00 in0.0 mm 0.00 in0.0 mm 0.00 in0.0 mm
08:30 PM 33.3°F0.7°C 33.3°F0.7°C 100% 0.1 mph ESE0.2 kmh ESE 6.7 mph10.8 kmh 30.10 in1019.3 mb 0.00 in0.0 mm 0.00 in0.0 mm 0.00 in0.0 mm
08:40 PM 33.4°F0.8°C 33.4°F0.8°C 100% 3.0 mph ESE4.8 kmh ESE 6.7 mph10.8 kmh 30.10 in1019.3 mb 0.00 in0.0 mm 0.00 in0.0 mm 0.00 in0.0 mm
08:50 PM 32.9°F0.5°C 32.9°F0.5°C 100% Calm Calm -- 30.10 in1019.3 mb 0.00 in0.0 mm 0.00 in0.0 mm 0.00 in0.0 mm
09:00 PM 32.9°F0.5°C 32.9°F0.5°C 100% 1.5 mph SE2.4 kmh SE 4.9 mph7.9 kmh 30.10 in1019.3 mb 0.00 in0.0 mm 0.00 in0.0 mm 0.00 in0.0 mm
09:10 PM 33.1°F0.6°C 33.1°F0.6°C 100% 2.3 mph ESE3.7 kmh ESE 4.7 mph7.6 kmh 30.10 in1019.3 mb 0.00 in0.0 mm 0.00 in0.0 mm 0.00 in0.0 mm
09:20 PM 33.1°F0.6°C 33.1°F0.6°C 100% 0.8 mph ESE1.3 kmh ESE 2.9 mph4.7 kmh 30.10 in1019.3 mb 0.00 in0.0 mm 0.00 in0.0 mm 0.00 in0.0 mm
09:30 PM 32.7°F0.4°C 32.7°F0.4°C 100% 0.8 mph SE1.3 kmh SE 2.9 mph4.7 kmh 30.10 in1019.3 mb 0.00 in0.0 mm 0.00 in0.0 mm 0.00 in0.0 mm
09:40 PM 32.7°F0.4°C 32.7°F0.4°C 100% Calm Calm -- 30.10 in1019.3 mb 0.00 in0.0 mm 0.00 in0.0 mm 0.00 in0.0 mm
09:50 PM 32.7°F0.4°C 32.7°F0.4°C 100% 0.4 mph ESE0.6 kmh ESE 1.8 mph2.9 kmh 30.10 in1019.3 mb 0.00 in0.0 mm 0.00 in0.0 mm 0.00 in0.0 mm
10:00 PM 32.7°F0.4°C 32.7°F0.4°C 100% Calm Calm -- 30.10 in1019.3 mb 0.00 in0.0 mm 0.00 in0.0 mm 0.00 in0.0 mm
10:10 PM 32.7°F0.4°C 32.7°F0.4°C 100% Calm Calm -- 30.10 in1019.3 mb 0.00 in0.0 mm 0.00 in0.0 mm 0.00 in0.0 mm
10:20 PM 32.7°F0.4°C 32.7°F0.4°C 100% Calm Calm -- 30.10 in1019.3 mb 0.00 in0.0 mm 0.00 in0.0 mm 0.00 in0.0 mm
10:30 PM 32.5°F0.3°C 32.5°F0.3°C 100% 1.0 mph ESE1.6 kmh ESE 2.2 mph3.5 kmh 30.10 in1019.3 mb 0.00 in0.0 mm 0.00 in0.0 mm 0.00 in0.0 mm
10:40 PM 32.4°F0.2°C 32.4°F0.2°C 100% 0.3 mph ESE0.5 kmh ESE 1.3 mph2.1 kmh 30.10 in1019.3 mb 0.00 in0.0 mm 0.00 in0.0 mm 0.00 in0.0 mm
10:50 PM 32.2°F0.1°C 31.2°F-0.4°C 96% Calm Calm -- 30.10 in1019.3 mb 0.00 in0.0 mm 0.00 in0.0 mm 0.00 in0.0 mm
11:00 PM 32.5°F0.3°C 31.5°F-0.3°C 96% 2.6 mph ESE4.2 kmh ESE 6.5 mph10.5 kmh 30.10 in1019.3 mb 0.00 in0.0 mm 0.00 in0.0 mm 0.00 in0.0 mm
11:10 PM 32.7°F0.4°C 31.7°F-0.2°C 96% 1.7 mph E2.7 kmh E 4.3 mph6.9 kmh 30.10 in1019.3 mb 0.00 in0.0 mm 0.00 in0.0 mm 0.00 in0.0 mm
11:20 PM 32.5°F0.3°C 31.5°F-0.3°C 96% 3.4 mph E5.5 kmh E 7.4 mph11.9 kmh 30.09 in1019.0 mb 0.00 in0.0 mm 0.00 in0.0 mm 0.00 in0.0 mm
11:30 PM 32.2°F0.1°C 31.2°F-0.4°C 96% Calm Calm 1.6 mph2.6 kmh 30.09 in1019.0 mb 0.00 in0.0 mm 0.00 in0.0 mm 0.00 in0.0 mm
11:40 PM 32.2°F0.1°C 31.2°F-0.4°C 96% 0.5 mph ESE0.8 kmh ESE 1.6 mph2.6 kmh 30.10 in1019.3 mb 0.00 in0.0 mm 0.00 in0.0 mm 0.00 in0.0 mm
11:50 PM 32.2°F0.1°C 31.2°F-0.4°C 96% Calm Calm -- 30.09 in1019.0 mb 0.00 in0.0 mm 0.00 in0.0 mm 0.00 in0.0 mm